Time;durP1;ratioP1;P1;durP2;ratioP2;P2;SDS_P1;SDS_P2;PMS_P1;PMS_P2;Temp;Humidity;BMP_temperature;BMP_pressure;BME280_temperature;BME280_humidity;BME280_pressure;Samples;Min_cycle;Max_cycle;Signal;HPM_P1;HPM_P2
2021/08/03 00:01:16;;;;;;;;;;;;;;;;;;5018321;28;19932;-67
2021/08/03 00:03:43;;;;;;;;;;;;;;;;;;5017904;28;19932;-68
2021/08/03 00:06:10;;;;;;;;;;;;;;;;;;5020674;28;19968;-67
2021/08/03 00:08:37;;;;;;;;;;;;;;;;;;5014647;28;19926;-67
2021/08/03 00:11:04;;;;;;;;;;;;;;;;;;5017575;28;20280;-67
2021/08/03 00:13:31;;;;;;;;;;;;;;;;;;5015126;28;19940;-68
2021/08/03 00:15:58;;;;;;;;;;;;;;;;;;5027161;28;19925;-67
2021/08/03 00:18:25;;;;;;;;;;;;;;;;;;5021361;28;19971;-67
2021/08/03 00:20:52;;;;;;;;;;;;;;;;;;5025766;28;19926;-68
2021/08/03 00:23:19;;;;;;;;;;;;;;;;;;5023580;28;19932;-68
2021/08/03 00:25:46;;;;;;;;;;;;;;;;;;5011422;28;19932;-67
2021/08/03 00:28:13;;;;;;;;;;;;;;;;;;5023755;28;19925;-68
2021/08/03 00:30:40;;;;;;;;;;;;;;;;;;5016151;28;20380;-67
2021/08/03 00:33:07;;;;;;;;;;;;;;;;;;5019726;28;19932;-67
2021/08/03 00:35:34;;;;;;;;;;;;;;;;;;5020194;28;19925;-67
2021/08/03 00:38:01;;;;;;;;;;;;;;;;;;5026706;28;19929;-67
2021/08/03 00:40:28;;;;;;;;;;;;;;;;;;5020457;28;19932;-67
2021/08/03 00:42:55;;;;;;;;;;;;;;;;;;5021523;28;19925;-67
2021/08/03 00:45:22;;;;;;;;;;;;;;;;;;5034057;28;20408;-68
2021/08/03 00:47:49;;;;;;;;;;;;;;;;;;5025868;28;20364;-69
2021/08/03 00:50:16;;;;;;;;;;;;;;;;;;5028607;28;19925;-68
2021/08/03 00:52:42;;;;;;;;;;;;;;;;;;5023539;28;19926;-68
2021/08/03 00:55:09;;;;;;;;;;;;;;;;;;5027792;28;19944;-68
2021/08/03 00:57:36;;;;;;;;;;;;;;;;;;5027659;28;19975;-68
2021/08/03 01:00:03;;;;;;;;;;;;;;;;;;5022206;28;19932;-69
2021/08/03 01:02:30;;;;;;;;;;;;;;;;;;5018765;28;19926;-69
2021/08/03 01:04:57;;;;;;;;;;;;;;;;;;5022189;28;19932;-68
2021/08/03 01:07:24;;;;;;;;;;;;;;;;;;5034080;28;20320;-68
2021/08/03 01:09:51;;;;;;;;;;;;;;;;;;5028496;28;19934;-69
2021/08/03 01:12:18;;;;;;;;;;;;;;;;;;5024760;28;19925;-69
2021/08/03 01:14:45;;;;;;;;;;;;;;;;;;5029989;28;19925;-68
2021/08/03 01:17:12;;;;;;;;;;;;;;;;;;5022740;28;20020;-68
2021/08/03 01:19:39;;;;;;;;;;;;;;;;;;5033893;28;19925;-69
2021/08/03 01:22:06;;;;;;;;;;;;;;;;;;5019286;28;19925;-69
2021/08/03 01:24:33;;;;;;;;;;;;;;;;;;5027145;28;20452;-68
2021/08/03 01:27:00;;;;;;;;;;;;;;;;;;5019889;28;19925;-68
2021/08/03 01:29:27;;;;;;;;;;;;;;;;;;5024418;28;19926;-68
2021/08/03 01:31:54;;;;;;;;;;;;;;;;;;5018518;28;19925;-69
2021/08/03 01:34:21;;;;;;;;;;;;;;;;;;5021544;28;19937;-69
2021/08/03 01:36:48;;;;;;;;;;;;;;;;;;5028700;28;20008;-69
2021/08/03 01:39:15;;;;;;;;;;;;;;;;;;5030877;28;19926;-69
2021/08/03 01:41:42;;;;;;;;;;;;;;;;;;5018618;28;19936;-68
2021/08/03 01:44:09;;;;;;;;;;;;;;;;;;5022010;28;19935;-69
2021/08/03 01:46:36;;;;;;;;;;;;;;;;;;5023162;28;19925;-68
2021/08/03 01:49:03;;;;;;;;;;;;;;;;;;5033524;28;19925;-68
2021/08/03 01:51:30;;;;;;;;;;;;;;;;;;5016401;28;19925;-69
2021/08/03 01:53:57;;;;;;;;;;;;;;;;;;5026344;28;19929;-68
2021/08/03 01:56:24;;;;;;;;;;;;;;;;;;5027921;28;19932;-68
2021/08/03 01:58:51;;;;;;;;;;;;;;;;;;5020714;28;19932;-68
2021/08/03 02:01:18;;;;;;;;;;;;;;;;;;5016600;28;19945;-69
2021/08/03 02:03:44;;;;;;;;;;;;;;;;;;5023550;28;19925;-69
2021/08/03 02:06:11;;;;;;;;;;;;;;;;;;5019131;28;19936;-68
2021/08/03 02:08:39;;;;;;;;;;;;;;;;;;5015995;28;20037;-67
2021/08/03 02:11:06;;;;;;;;;;;;;;;;;;5016102;28;19975;-68
2021/08/03 02:13:32;;;;;;;;;;;;;;;;;;5023235;28;20374;-67
2021/08/03 02:15:59;;;;;;;;;;;;;;;;;;5022850;28;19926;-68
2021/08/03 02:18:26;;;;;;;;;;;;;;;;;;5019983;28;19925;-68
2021/08/03 02:20:54;;;;;;;;;;;;;;;;;;5018439;28;20407;-67
2021/08/03 02:23:21;;;;;;;;;;;;;;;;;;5022137;28;19925;-67
2021/08/03 02:25:48;;;;;;;;;;;;;;;;;;5014038;28;19944;-67
2021/08/03 02:28:15;;;;;;;;;;;;;;;;;;5020080;28;19932;-68
2021/08/03 02:30:43;;;;;;;;;;;;;;;;;;5015374;28;19960;-68
2021/08/03 02:33:13;;;;;;;;;;;;;;;;;;5024658;28;19925;-67
2021/08/03 02:35:40;;;;;;;;;;;;;;;;;;5018574;28;19932;-67
2021/08/03 02:38:07;;;;;;;;;;;;;;;;;;5015351;28;19926;-67
2021/08/03 02:40:34;;;;;;;;;;;;;;;;;;5026106;28;19933;-67
2021/08/03 02:43:00;;;;;;;;;;;;;;;;;;5015939;28;19926;-68
2021/08/03 02:45:27;;;;;;;;;;;;;;;;;;5018729;28;20398;-67
2021/08/03 02:47:57;;;;;;;;;;;;;;;;;;5015298;28;19925;-68
2021/08/03 02:50:24;;;;;;;;;;;;;;;;;;5021592;28;19939;-67
2021/08/03 02:52:51;;;;;;;;;;;;;;;;;;5023464;28;19925;-67
2021/08/03 02:55:17;;;;;;;;;;;;;;;;;;5013841;28;19925;-68
2021/08/03 02:57:44;;;;;;;;;;;;;;;;;;5022968;28;20311;-68
2021/08/03 03:00:13;;;;;;;;;;;;;;;;;;5023895;28;19929;-68
2021/08/03 03:02:39;;;;;;;;;;;;;;;;;;5010990;28;20301;-68
2021/08/03 03:05:06;;;;;;;;;;;;;;;;;;5023600;28;19925;-68
2021/08/03 03:07:33;;;;;;;;;;;;;;;;;;5030702;28;19926;-68
2021/08/03 03:10:00;;;;;;;;;;;;;;;;;;5024077;28;19926;-68
2021/08/03 03:12:27;;;;;;;;;;;;;;;;;;5020103;28;19926;-68
2021/08/03 03:14:54;;;;;;;;;;;;;;;;;;5025237;28;19959;-67
2021/08/03 03:17:21;;;;;;;;;;;;;;;;;;5021553;28;19932;-68
2021/08/03 03:19:48;;;;;;;;;;;;;;;;;;5022758;28;20270;-68
2021/08/03 03:22:15;;;;;;;;;;;;;;;;;;5023592;28;19925;-67
2021/08/03 03:24:42;;;;;;;;;;;;;;;;;;5019300;28;19959;-67
2021/08/03 03:27:09;;;;;;;;;;;;;;;;;;5025399;28;19925;-67
2021/08/03 03:29:36;;;;;;;;;;;;;;;;;;5024477;28;19956;-67
2021/08/03 03:32:02;;;;;;;;;;;;;;;;;;5019946;28;19929;-68
2021/08/03 03:34:29;;;;;;;;;;;;;;;;;;5016076;28;19925;-68
2021/08/03 03:36:56;;;;;;;;;;;;;;;;;;5024199;28;19933;-67
2021/08/03 03:39:23;;;;;;;;;;;;;;;;;;5019297;28;20290;-67
2021/08/03 03:41:50;;;;;;;;;;;;;;;;;;5031842;22;19925;-65
2021/08/03 03:44:17;;;;;;;;;;;;;;;;;;5017060;28;19925;-65
2021/08/03 03:46:44;;;;;;;;;;;;;;;;;;5020450;28;19932;-66
2021/08/03 03:49:11;;;;;;;;;;;;;;;;;;5013907;28;20388;-65
2021/08/03 03:51:38;;;;;;;;;;;;;;;;;;4996578;28;19929;-65
2021/08/03 03:54:05;;;;;;;;;;;;;;;;;;4987647;28;19926;-66
2021/08/03 03:56:32;;;;;;;;;;;;;;;;;;4988874;28;19926;-66
2021/08/03 03:58:59;;;;;;;;;;;;;;;;;;4993835;28;20341;-66
2021/08/03 04:01:26;;;;;;;;;;;;;;;;;;4993931;28;19926;-67
2021/08/03 04:03:53;;;;;;;;;;;;;;;;;;4996599;28;19930;-67
2021/08/03 04:06:20;;;;;;;;;;;;;;;;;;4998047;28;20404;-67
2021/08/03 04:08:47;;;;;;;;;;;;;;;;;;4992192;28;20301;-67
2021/08/03 04:11:15;;;;;;;;;;;;;;;;;;4986921;28;19925;-68
2021/08/03 04:13:42;;;;;;;;;;;;;;;;;;4992899;28;19932;-67
2021/08/03 04:16:09;;;;;;;;;;;;;;;;;;4989215;28;19941;-68
2021/08/03 04:18:36;;;;;;;;;;;;;;;;;;4999721;28;19925;-67
2021/08/03 04:21:03;;;;;;;;;;;;;;;;;;4994769;28;20390;-67
2021/08/03 04:23:30;;;;;;;;;;;;;;;;;;5001168;28;19926;-67
2021/08/03 04:25:57;;;;;;;;;;;;;;;;;;4986800;28;20024;-68
2021/08/03 04:28:24;;;;;;;;;;;;;;;;;;4989603;28;19937;-68
2021/08/03 04:30:51;;;;;;;;;;;;;;;;;;4999860;28;19925;-68
2021/08/03 04:33:18;;;;;;;;;;;;;;;;;;4993419;28;19937;-66
2021/08/03 04:35:45;;;;;;;;;;;;;;;;;;4993639;28;19977;-66
2021/08/03 04:38:12;;;;;;;;;;;;;;;;;;4991311;28;19926;-66
2021/08/03 04:40:39;;;;;;;;;;;;;;;;;;4988601;28;19932;-67
2021/08/03 04:43:06;;;;;;;;;;;;;;;;;;4998453;28;19933;-68
2021/08/03 04:45:33;;;;;;;;;;;;;;;;;;4989141;28;19926;-66
2021/08/03 04:48:00;;;;;;;;;;;;;;;;;;4988290;28;19926;-66
2021/08/03 04:50:27;;;;;;;;;;;;;;;;;;4987660;28;19957;-66
2021/08/03 04:52:53;;;;;;;;;;;;;;;;;;4995247;28;19926;-66
2021/08/03 04:55:20;;;;;;;;;;;;;;;;;;4996560;28;19925;-66
2021/08/03 04:57:47;;;;;;;;;;;;;;;;;;4984978;28;19926;-66
2021/08/03 05:00:14;;;;;;;;;;;;;;;;;;4994274;28;19945;-69
2021/08/03 05:02:41;;;;;;;;;;;;;;;;;;4996391;28;19933;-67
2021/08/03 05:05:08;;;;;;;;;;;;;;;;;;5004307;28;19930;-67
2021/08/03 05:07:35;;;;;;;;;;;;;;;;;;4991312;28;19926;-67
2021/08/03 05:10:02;;;;;;;;;;;;;;;;;;4987487;28;19932;-67
2021/08/03 05:12:30;;;;;;;;;;;;;;;;;;4984821;28;20413;-67
2021/08/03 05:15:00;;;;;;;;;;;;;;;;;;4986055;28;19926;-66
2021/08/03 05:17:27;;;;;;;;;;;;;;;;;;4985446;28;20382;-67
2021/08/03 05:19:54;;;;;;;;;;;;;;;;;;4977219;28;19934;-66
2021/08/03 05:22:20;;;;;;;;;;;;;;;;;;4986816;28;19927;-67
2021/08/03 05:24:47;;;;;;;;;;;;;;;;;;4975655;28;19926;-72
2021/08/03 05:27:14;;;;;;;;;;;;;;;;;;4975454;28;19932;-67
2021/08/03 05:29:41;;;;;;;;;;;;;;;;;;4975889;28;20016;-67
2021/08/03 05:32:08;;;;;;;;;;;;;;;;;;4982706;28;19936;-67
2021/08/03 05:34:35;;;;;;;;;;;;;;;;;;4986869;28;20370;-67
2021/08/03 05:37:02;;;;;;;;;;;;;;;;;;4976431;28;19933;-67
2021/08/03 05:39:30;;;;;;;;;;;;;;;;;;4976067;28;20022;-67
2021/08/03 05:41:57;;;;;;;;;;;;;;;;;;4977444;28;20021;-67
2021/08/03 05:44:24;;;;;;;;;;;;;;;;;;4981490;28;20441;-67
2021/08/03 05:46:51;;;;;;;;;;;;;;;;;;4975963;28;19926;-68
2021/08/03 05:49:18;;;;;;;;;;;;;;;;;;4980858;28;19946;-67
2021/08/03 05:51:45;;;;;;;;;;;;;;;;;;4976103;28;20001;-68
2021/08/03 05:54:12;;;;;;;;;;;;;;;;;;4984737;28;20048;-67
2021/08/03 05:56:39;;;;;;;;;;;;;;;;;;4980295;28;19946;-68
2021/08/03 05:59:06;;;;;;;;;;;;;;;;;;4978736;28;19937;-67
2021/08/03 06:01:33;;;;;;;;;;;;;;;;;;4989487;28;19925;-67
2021/08/03 06:04:00;;;;;;;;;;;;;;;;;;4987873;28;19926;-67
2021/08/03 06:06:27;;;;;;;;;;;;;;;;;;4980743;28;19933;-68
2021/08/03 06:08:54;;;;;;;;;;;;;;;;;;4981374;28;19933;-67
2021/08/03 06:11:21;;;;;;;;;;;;;;;;;;4983607;28;19926;-67
2021/08/03 06:13:48;;;;;;;;;;;;;;;;;;4984960;28;19941;-67
2021/08/03 06:16:16;;;;;;;;;;;;;;;;;;4987953;28;19934;-67
2021/08/03 06:18:42;;;;;;;;;;;;;;;;;;4984405;28;19926;-67
2021/08/03 06:21:09;;;;;;;;;;;;;;;;;;4981787;28;19933;-67
2021/08/03 06:23:36;;;;;;;;;;;;;;;;;;4985048;28;19926;-67
2021/08/03 06:26:03;;;;;;;;;;;;;;;;;;4982216;28;19926;-67
2021/08/03 06:28:30;;;;;;;;;;;;;;;;;;4983998;28;20345;-67
2021/08/03 06:30:57;;;;;;;;;;;;;;;;;;4986280;28;19932;-67
2021/08/03 06:33:24;;;;;;;;;;;;;;;;;;4980205;28;19926;-67
2021/08/03 06:35:51;;;;;;;;;;;;;;;;;;4985293;28;19936;-68
2021/08/03 06:38:18;;;;;;;;;;;;;;;;;;4991260;28;19933;-68
2021/08/03 06:40:45;;;;;;;;;;;;;;;;;;4989445;28;19926;-68
2021/08/03 06:43:12;;;;;;;;;;;;;;;;;;4990116;28;19925;-68
2021/08/03 06:45:39;;;;;;;;;;;;;;;;;;4986236;28;20318;-68
2021/08/03 06:48:06;;;;;;;;;;;;;;;;;;4991463;28;19926;-67
2021/08/03 06:50:33;;;;;;;;;;;;;;;;;;4980718;28;19961;-68
2021/08/03 06:53:00;;;;;;;;;;;;;;;;;;4983016;28;19941;-67
2021/08/03 06:55:27;;;;;;;;;;;;;;;;;;4982107;28;19926;-68
2021/08/03 06:57:54;;;;;;;;;;;;;;;;;;4990978;28;19926;-68
2021/08/03 07:00:23;;;;;;;;;;;;;;;;;;4988772;28;19973;-68
2021/08/03 07:02:50;;;;;;;;;;;;;;;;;;4988720;28;19934;-67
2021/08/03 07:05:17;;;;;;;;;;;;;;;;;;4988330;28;19926;-68
2021/08/03 07:07:44;;;;;;;;;;;;;;;;;;4985101;28;19936;-68
2021/08/03 07:10:11;;;;;;;;;;;;;;;;;;4976008;28;21380;-68
2021/08/03 07:12:38;;;;;;;;;;;;;;;;;;4980375;28;19934;-68
2021/08/03 07:15:05;;;;;;;;;;;;;;;;;;4990335;28;20417;-68
2021/08/03 07:17:32;;;;;;;;;;;;;;;;;;4988343;28;20037;-68
2021/08/03 07:19:59;;;;;;;;;;;;;;;;;;4989666;28;19929;-67
2021/08/03 07:22:26;;;;;;;;;;;;;;;;;;4991623;28;20396;-68
2021/08/03 07:24:53;;;;;;;;;;;;;;;;;;4985770;28;19926;-68
2021/08/03 07:27:20;;;;;;;;;;;;;;;;;;4988359;28;19926;-68
2021/08/03 07:29:47;;;;;;;;;;;;;;;;;;4986915;28;19932;-67
2021/08/03 07:32:14;;;;;;;;;;;;;;;;;;4987175;28;20017;-67
2021/08/03 07:34:41;;;;;;;;;;;;;;;;;;4991431;28;20469;-68
2021/08/03 07:37:08;;;;;;;;;;;;;;;;;;4988398;28;19932;-68
2021/08/03 07:39:35;;;;;;;;;;;;;;;;;;4989163;28;19932;-68
2021/08/03 07:42:02;;;;;;;;;;;;;;;;;;4992703;28;19933;-68
2021/08/03 07:44:29;;;;;;;;;;;;;;;;;;4987923;28;19933;-69
2021/08/03 07:46:56;;;;;;;;;;;;;;;;;;4991459;28;19933;-67
2021/08/03 07:49:23;;;;;;;;;;;;;;;;;;4988176;28;19926;-67
2021/08/03 07:51:50;;;;;;;;;;;;;;;;;;4989341;28;20386;-67
2021/08/03 07:54:17;;;;;;;;;;;;;;;;;;4987599;28;20338;-67
2021/08/03 07:56:44;;;;;;;;;;;;;;;;;;4990275;28;19934;-67
2021/08/03 07:59:11;;;;;;;;;;;;;;;;;;4988866;28;19933;-65
2021/08/03 08:01:38;;;;;;;;;;;;;;;;;;4985655;28;19926;-65
2021/08/03 08:04:05;;;;;;;;;;;;;;;;;;4987389;28;19926;-65
2021/08/03 08:06:32;;;;;;;;;;;;;;;;;;4991609;28;19926;-65
2021/08/03 08:08:59;;;;;;;;;;;;;;;;;;4989007;28;19936;-65
2021/08/03 08:11:26;;;;;;;;;;;;;;;;;;4987366;28;19926;-65
2021/08/03 08:13:53;;;;;;;;;;;;;;;;;;4983187;28;19925;-65
2021/08/03 08:16:20;;;;;;;;;;;;;;;;;;4984927;28;19933;-65
2021/08/03 08:18:47;;;;;;;;;;;;;;;;;;4987116;28;19929;-65
2021/08/03 08:21:14;;;;;;;;;;;;;;;;;;4988094;28;19926;-65
2021/08/03 08:23:41;;;;;;;;;;;;;;;;;;4992158;28;20362;-66
2021/08/03 08:26:08;;;;;;;;;;;;;;;;;;4982130;28;19926;-65
2021/08/03 08:28:35;;;;;;;;;;;;;;;;;;4989441;28;20016;-67
2021/08/03 08:31:02;;;;;;;;;;;;;;;;;;4987728;28;19930;-66
2021/08/03 08:33:29;;;;;;;;;;;;;;;;;;4990001;28;20031;-67
2021/08/03 08:35:56;;;;;;;;;;;;;;;;;;4989470;28;20551;-67
2021/08/03 08:38:23;;;;;;;;;;;;;;;;;;4986020;28;19932;-67
2021/08/03 08:40:51;;;;;;;;;;;;;;;;;;4987459;28;19933;-66
2021/08/03 08:43:18;;;;;;;;;;;;;;;;;;4984596;28;19961;-67
2021/08/03 08:45:45;;;;;;;;;;;;;;;;;;4989554;28;20014;-66
2021/08/03 08:48:11;;;;;;;;;;;;;;;;;;4989035;28;19936;-67
2021/08/03 08:50:38;;;;;;;;;;;;;;;;;;4988887;28;19934;-67
2021/08/03 08:53:05;;;;;;;;;;;;;;;;;;4990910;28;20401;-66
2021/08/03 08:55:33;;;;;;;;;;;;;;;;;;4989687;28;19969;-69
2021/08/03 08:58:00;;;;;;;;;;;;;;;;;;4988572;28;19985;-68
2021/08/03 09:00:28;;;;;;;;;;;;;;;;;;4987892;28;20257;-67
2021/08/03 09:02:56;;;;;;;;;;;;;;;;;;4989380;28;20416;-68
2021/08/03 09:05:23;;;;;;;;;;;;;;;;;;4987815;28;19926;-66
2021/08/03 09:07:50;;;;;;;;;;;;;;;;;;4989661;28;19931;-66
2021/08/03 09:10:17;;;;;;;;;;;;;;;;;;4989312;28;20429;-66
2021/08/03 09:12:44;;;;;;;;;;;;;;;;;;4989946;28;19926;-67
2021/08/03 09:15:11;;;;;;;;;;;;;;;;;;4990287;28;19926;-67
2021/08/03 09:17:38;;;;;;;;;;;;;;;;;;4989350;28;20293;-67
2021/08/03 09:20:05;;;;;;;;;;;;;;;;;;4992201;28;20293;-68
2021/08/03 09:22:34;;;;;;;;;;;;;;;;;;4984866;28;20303;-67
2021/08/03 09:25:01;;;;;;;;;;;;;;;;;;4983695;28;19965;-67
2021/08/03 09:27:28;;;;;;;;;;;;;;;;;;4987739;28;20284;-66
2021/08/03 09:29:55;;;;;;;;;;;;;;;;;;4989394;28;19925;-66
2021/08/03 09:32:22;;;;;;;;;;;;;;;;;;4989384;28;19932;-67
2021/08/03 09:34:49;;;;;;;;;;;;;;;;;;4987434;28;19930;-66
2021/08/03 09:37:16;;;;;;;;;;;;;;;;;;4990195;28;19932;-66
2021/08/03 09:39:43;;;;;;;;;;;;;;;;;;4983055;28;20307;-66
2021/08/03 09:42:10;;;;;;;;;;;;;;;;;;5037652;23;19932;-67
2021/08/03 09:44:37;;;;;;;;;;;;;;;;;;5029892;28;20016;-68
2021/08/03 09:47:04;;;;;;;;;;;;;;;;;;5027511;28;19932;-68
2021/08/03 09:49:31;;;;;;;;;;;;;;;;;;5022623;28;19925;-64
2021/08/03 09:51:58;;;;;;;;;;;;;;;;;;5025034;28;20393;-65
2021/08/03 09:54:25;;;;;;;;;;;;;;;;;;5021326;28;19925;-66
2021/08/03 09:56:52;;;;;;;;;;;;;;;;;;5026249;28;19940;-66
2021/08/03 09:59:19;;;;;;;;;;;;;;;;;;5028398;28;19929;-68
2021/08/03 10:01:49;;;;;;;;;;;;;;;;;;5027328;28;20001;-65
2021/08/03 10:04:16;;;;;;;;;;;;;;;;;;5025468;28;19961;-67
2021/08/03 10:06:44;;;;;;;;;;;;;;;;;;5026293;28;19925;-67
2021/08/03 10:09:11;;;;;;;;;;;;;;;;;;5024528;28;20401;-67
2021/08/03 10:11:38;;;;;;;;;;;;;;;;;;5033086;28;19952;-69
2021/08/03 10:14:05;;;;;;;;;;;;;;;;;;5035315;28;19939;-69
2021/08/03 10:16:32;;;;;;;;;;;;;;;;;;5029027;28;19933;-68
2021/08/03 10:19:00;;;;;;;;;;;;;;;;;;5029768;28;19932;-69
2021/08/03 10:21:28;;;;;;;;;;;;;;;;;;5026979;28;19982;-69
2021/08/03 10:23:55;;;;;;;;;;;;;;;;;;5029614;28;19925;-66
2021/08/03 10:26:22;;;;;;;;;;;;;;;;;;5030688;28;19932;-67
2021/08/03 10:28:49;;;;;;;;;;;;;;;;;;5029174;28;19936;-66
2021/08/03 10:31:16;;;;;;;;;;;;;;;;;;5030744;28;20369;-67
2021/08/03 10:33:42;;;;;;;;;;;;;;;;;;5036898;28;19933;-67
2021/08/03 10:36:09;;;;;;;;;;;;;;;;;;5032722;28;19925;-66
2021/08/03 10:38:36;;;;;;;;;;;;;;;;;;5031691;28;19925;-66
2021/08/03 10:41:03;;;;;;;;;;;;;;;;;;5030660;28;19925;-67
2021/08/03 10:43:30;;;;;;;;;;;;;;;;;;5031739;28;19925;-68
2021/08/03 10:45:57;;;;;;;;;;;;;;;;;;5027977;28;19925;-65
2021/08/03 10:48:24;;;;;;;;;;;;;;;;;;5031772;28;20324;-66
2021/08/03 10:50:51;;;;;;;;;;;;;;;;;;5031296;28;19999;-69
2021/08/03 10:53:18;;;;;;;;;;;;;;;;;;5033481;28;19940;-66
2021/08/03 10:55:45;;;;;;;;;;;;;;;;;;5034305;28;20322;-67
2021/08/03 10:58:13;;;;;;;;;;;;;;;;;;5030404;28;19929;-66
2021/08/03 11:00:40;;;;;;;;;;;;;;;;;;5030551;28;19977;-66
2021/08/03 11:03:07;;;;;;;;;;;;;;;;;;5029629;28;19925;-67
2021/08/03 11:05:34;;;;;;;;;;;;;;;;;;5032328;28;20306;-66
2021/08/03 11:08:01;;;;;;;;;;;;;;;;;;5032949;28;20317;-67
2021/08/03 11:10:28;;;;;;;;;;;;;;;;;;5028625;28;19925;-68
2021/08/03 11:12:56;;;;;;;;;;;;;;;;;;5029691;28;19925;-67
2021/08/03 11:15:22;;;;;;;;;;;;;;;;;;5029407;28;20373;-66
2021/08/03 11:17:49;;;;;;;;;;;;;;;;;;5029766;28;20347;-68
2021/08/03 11:20:16;;;;;;;;;;;;;;;;;;5033963;28;19929;-65
2021/08/03 11:22:43;;;;;;;;;;;;;;;;;;5023439;28;19926;-65
2021/08/03 11:25:10;;;;;;;;;;;;;;;;;;5029226;28;19934;-65
2021/08/03 11:27:37;;;;;;;;;;;;;;;;;;5028598;28;20287;-67
2021/08/03 11:30:04;;;;;;;;;;;;;;;;;;5031189;28;19925;-67
2021/08/03 11:32:34;;;;;;;;;;;;;;;;;;5028921;28;19925;-66
2021/08/03 11:35:01;;;;;;;;;;;;;;;;;;5026551;28;19926;-64
2021/08/03 11:37:28;;;;;;;;;;;;;;;;;;5022231;28;19929;-65
2021/08/03 11:39:55;;;;;;;;;;;;;;;;;;5025127;28;19945;-63
2021/08/03 11:42:22;;;;;;;;;;;;;;;;;;5022836;28;20460;-65
2021/08/03 11:44:49;;;;;;;;;;;;;;;;;;5020754;28;19935;-66
2021/08/03 11:47:17;;;;;;;;;;;;;;;;;;5027894;28;20339;-68
2021/08/03 11:49:45;;;;;;;;;;;;;;;;;;5028882;28;19968;-63
2021/08/03 11:52:12;;;;;;;;;;;;;;;;;;5028525;28;20511;-68
2021/08/03 11:54:39;;;;;;;;;;;;;;;;;;5029527;28;20019;-66
2021/08/03 11:57:06;;;;;;;;;;;;;;;;;;5027097;28;19973;-68
2021/08/03 11:59:33;;;;;;;;;;;;;;;;;;5032424;28;19925;-67
2021/08/03 12:02:00;;;;;;;;;;;;;;;;;;5029517;28;19932;-66
2021/08/03 12:04:27;;;;;;;;;;;;;;;;;;5026566;28;19929;-65
2021/08/03 12:06:54;;;;;;;;;;;;;;;;;;5027420;28;19926;-66
2021/08/03 12:09:21;;;;;;;;;;;;;;;;;;5025196;28;19929;-66
2021/08/03 12:11:48;;;;;;;;;;;;;;;;;;5027901;28;20417;-69
2021/08/03 12:14:15;;;;;;;;;;;;;;;;;;5026776;28;19932;-65
2021/08/03 12:16:43;;;;;;;;;;;;;;;;;;5027872;28;19926;-64
2021/08/03 12:19:10;;;;;;;;;;;;;;;;;;5024763;28;20690;-66
2021/08/03 12:21:37;;;;;;;;;;;;;;;;;;5028909;28;20393;-68
2021/08/03 12:24:04;;;;;;;;;;;;;;;;;;5023351;28;19936;-65
2021/08/03 12:26:31;;;;;;;;;;;;;;;;;;5027292;28;19925;-66
2021/08/03 12:28:57;;;;;;;;;;;;;;;;;;5028403;28;19925;-68
2021/08/03 12:31:26;;;;;;;;;;;;;;;;;;5028755;28;20304;-65
2021/08/03 12:33:53;;;;;;;;;;;;;;;;;;5027102;28;20328;-66
2021/08/03 12:36:20;;;;;;;;;;;;;;;;;;5026140;28;19925;-67
2021/08/03 12:38:47;;;;;;;;;;;;;;;;;;5026292;28;20373;-69
2021/08/03 12:41:14;;;;;;;;;;;;;;;;;;5026440;28;19925;-66
2021/08/03 12:43:41;;;;;;;;;;;;;;;;;;5026661;28;19925;-67
2021/08/03 12:46:08;;;;;;;;;;;;;;;;;;5028583;28;19929;-67
2021/08/03 12:48:37;;;;;;;;;;;;;;;;;;5033534;28;19976;-68
2021/08/03 12:51:04;;;;;;;;;;;;;;;;;;5033918;28;19983;-65
2021/08/03 12:53:31;;;;;;;;;;;;;;;;;;5037013;28;19933;-65
2021/08/03 12:56:05;;;;;;;;;;;;;;;;;;5025758;28;19932;-68
2021/08/03 12:58:32;;;;;;;;;;;;;;;;;;5024969;28;19980;-66
2021/08/03 13:00:58;;;;;;;;;;;;;;;;;;5025567;28;19930;-68
2021/08/03 13:03:25;;;;;;;;;;;;;;;;;;5028970;28;19933;-65
2021/08/03 13:05:52;;;;;;;;;;;;;;;;;;5027104;28;19926;-69
2021/08/03 13:08:19;;;;;;;;;;;;;;;;;;5027397;28;20250;-66
2021/08/03 13:10:46;;;;;;;;;;;;;;;;;;5030091;28;19959;-69
2021/08/03 13:13:14;;;;;;;;;;;;;;;;;;5024234;28;19925;-69
2021/08/03 13:15:41;;;;;;;;;;;;;;;;;;5024278;28;20088;-66
2021/08/03 13:18:08;;;;;;;;;;;;;;;;;;5026125;28;19929;-64
2021/08/03 13:20:35;;;;;;;;;;;;;;;;;;5023102;28;19929;-67
2021/08/03 13:23:02;;;;;;;;;;;;;;;;;;5027309;28;19925;-68
2021/08/03 13:25:29;;;;;;;;;;;;;;;;;;5020057;28;19925;-66
2021/08/03 13:27:56;;;;;;;;;;;;;;;;;;5022456;28;19936;-67
2021/08/03 13:30:23;;;;;;;;;;;;;;;;;;5027420;28;19925;-66
2021/08/03 13:32:50;;;;;;;;;;;;;;;;;;5026746;28;19933;-68
2021/08/03 13:35:18;;;;;;;;;;;;;;;;;;5025570;28;19925;-66
2021/08/03 13:37:45;;;;;;;;;;;;;;;;;;5022667;28;20450;-68
2021/08/03 13:40:13;;;;;;;;;;;;;;;;;;5021749;28;19951;-68
2021/08/03 13:42:40;;;;;;;;;;;;;;;;;;5024962;28;19932;-66
2021/08/03 13:45:09;;;;;;;;;;;;;;;;;;5024723;28;20267;-64
2021/08/03 13:47:36;;;;;;;;;;;;;;;;;;5025879;28;20008;-68
2021/08/03 13:50:03;;;;;;;;;;;;;;;;;;5025217;28;20406;-69
2021/08/03 13:52:30;;;;;;;;;;;;;;;;;;5022219;28;19928;-64
2021/08/03 13:54:56;;;;;;;;;;;;;;;;;;5028868;28;19925;-66
2021/08/03 13:57:23;;;;;;;;;;;;;;;;;;5024376;28;19992;-66
2021/08/03 13:59:50;;;;;;;;;;;;;;;;;;5023259;28;19929;-66
2021/08/03 14:02:17;;;;;;;;;;;;;;;;;;5022489;28;20303;-66
2021/08/03 14:04:44;;;;;;;;;;;;;;;;;;5024484;28;20028;-66
2021/08/03 14:07:11;;;;;;;;;;;;;;;;;;5023295;28;19925;-65
2021/08/03 14:09:38;;;;;;;;;;;;;;;;;;5025213;28;20274;-66
2021/08/03 14:12:05;;;;;;;;;;;;;;;;;;5026013;28;19925;-66
2021/08/03 14:14:32;;;;;;;;;;;;;;;;;;5025668;28;20281;-66
2021/08/03 14:16:59;;;;;;;;;;;;;;;;;;5021299;28;19933;-65
2021/08/03 14:19:26;;;;;;;;;;;;;;;;;;5026346;28;19933;-66
2021/08/03 14:21:53;;;;;;;;;;;;;;;;;;5022658;28;19925;-65
2021/08/03 14:24:20;;;;;;;;;;;;;;;;;;5024770;28;19925;-66
2021/08/03 14:26:47;;;;;;;;;;;;;;;;;;5020798;28;19929;-66
2021/08/03 14:29:14;;;;;;;;;;;;;;;;;;5024386;28;19925;-65
2021/08/03 14:31:41;;;;;;;;;;;;;;;;;;5028359;28;19925;-68
2021/08/03 14:34:08;;;;;;;;;;;;;;;;;;5024759;28;19932;-67
2021/08/03 14:36:35;;;;;;;;;;;;;;;;;;5025618;28;19956;-66
2021/08/03 14:39:01;;;;;;;;;;;;;;;;;;5024377;28;19933;-66
2021/08/03 14:41:28;;;;;;;;;;;;;;;;;;5026021;28;20311;-66
2021/08/03 14:43:55;;;;;;;;;;;;;;;;;;5025754;28;19931;-66
2021/08/03 14:46:22;;;;;;;;;;;;;;;;;;5024741;28;19931;-66
2021/08/03 14:48:50;;;;;;;;;;;;;;;;;;5023416;28;19929;-67
2021/08/03 14:51:17;;;;;;;;;;;;;;;;;;5022320;28;20024;-69
2021/08/03 14:53:44;;;;;;;;;;;;;;;;;;5026369;28;20718;-68
2021/08/03 14:56:11;;;;;;;;;;;;;;;;;;5026435;28;19925;-66
2021/08/03 14:58:38;;;;;;;;;;;;;;;;;;5028188;28;19957;-68
2021/08/03 15:01:05;;;;;;;;;;;;;;;;;;5033484;28;19931;-66
2021/08/03 15:03:32;;;;;;;;;;;;;;;;;;5030890;28;19925;-66
2021/08/03 15:05:59;;;;;;;;;;;;;;;;;;5027858;28;19933;-67
2021/08/03 15:08:26;;;;;;;;;;;;;;;;;;5027537;28;19929;-69
2021/08/03 15:10:53;;;;;;;;;;;;;;;;;;5024961;28;19926;-64
2021/08/03 15:13:20;;;;;;;;;;;;;;;;;;5027566;28;19924;-66
2021/08/03 15:15:47;;;;;;;;;;;;;;;;;;5031583;28;19935;-70
2021/08/03 15:18:14;;;;;;;;;;;;;;;;;;5030148;28;19930;-68
2021/08/03 15:20:41;;;;;;;;;;;;;;;;;;5024669;28;19933;-65
2021/08/03 15:23:08;;;;;;;;;;;;;;;;;;5027205;28;19925;-67
2021/08/03 15:25:35;;;;;;;;;;;;;;;;;;5024993;28;19931;-65
2021/08/03 15:28:02;;;;;;;;;;;;;;;;;;5027365;28;19925;-65
2021/08/03 15:30:29;;;;;;;;;;;;;;;;;;5027492;28;19975;-68
2021/08/03 15:32:56;;;;;;;;;;;;;;;;;;5026863;28;20004;-65
2021/08/03 15:35:23;;;;;;;;;;;;;;;;;;5028112;28;19932;-66
2021/08/03 15:37:50;;;;;;;;;;;;;;;;;;5030760;28;19929;-65
2021/08/03 15:40:17;;;;;;;;;;;;;;;;;;5022897;28;20304;-65
2021/08/03 15:42:44;;;;;;;;;;;;;;;;;;5028944;28;19925;-65
2021/08/03 15:45:11;;;;;;;;;;;;;;;;;;5027900;28;19932;-66
2021/08/03 15:47:40;;;;;;;;;;;;;;;;;;5025832;28;20388;-65
2021/08/03 15:50:07;;;;;;;;;;;;;;;;;;5026952;28;19940;-65
2021/08/03 15:52:34;;;;;;;;;;;;;;;;;;5034312;28;20421;-65
2021/08/03 15:55:01;;;;;;;;;;;;;;;;;;5028536;28;20384;-66
2021/08/03 15:57:28;;;;;;;;;;;;;;;;;;5027297;28;20281;-65
2021/08/03 15:59:55;;;;;;;;;;;;;;;;;;5029440;28;19926;-65
2021/08/03 16:02:22;;;;;;;;;;;;;;;;;;5031895;28;19933;-67
2021/08/03 16:04:49;;;;;;;;;;;;;;;;;;5031281;28;19925;-66
2021/08/03 16:07:16;;;;;;;;;;;;;;;;;;5030065;28;20016;-66
2021/08/03 16:09:42;;;;;;;;;;;;;;;;;;5030911;28;19924;-67
2021/08/03 16:12:09;;;;;;;;;;;;;;;;;;5028645;28;20155;-64
2021/08/03 16:14:36;;;;;;;;;;;;;;;;;;5027539;28;19926;-66
2021/08/03 16:17:05;;;;;;;;;;;;;;;;;;5030530;28;19932;-66
2021/08/03 16:19:32;;;;;;;;;;;;;;;;;;5036152;28;19972;-67
2021/08/03 16:21:59;;;;;;;;;;;;;;;;;;5028264;28;19932;-66
2021/08/03 16:24:26;;;;;;;;;;;;;;;;;;5027441;28;19936;-65
2021/08/03 16:26:53;;;;;;;;;;;;;;;;;;5033040;28;19932;-65
2021/08/03 16:29:20;;;;;;;;;;;;;;;;;;5027986;28;19929;-66
2021/08/03 16:31:47;;;;;;;;;;;;;;;;;;5029445;28;20347;-68
2021/08/03 16:34:14;;;;;;;;;;;;;;;;;;5033144;28;19925;-66
2021/08/03 16:36:41;;;;;;;;;;;;;;;;;;5035665;28;20019;-67
2021/08/03 16:39:08;;;;;;;;;;;;;;;;;;5040024;28;20266;-64
2021/08/03 16:41:35;;;;;;;;;;;;;;;;;;5032306;28;19925;-66
2021/08/03 16:44:02;;;;;;;;;;;;;;;;;;5028249;28;19975;-66